Time;durP1;ratioP1;P1;durP2;ratioP2;P2;SDS_P1;SDS_P2;PMS_P1;PMS_P2;Temp;Humidity;BMP_temperature;BMP_pressure;BME280_temperature;BME280_humidity;BME280_pressure;Samples;Min_cycle;Max_cycle;Signal;HPM_P1;HPM_P2
2021/09/15 00:00:47;;;;;;;11.05;5.60;;;;;;;;;;4953886;28;20130;-74
2021/09/15 00:03:12;;;;;;;8.70;5.60;;;;;;;;;;4954876;29;20042;-73
2021/09/15 00:05:37;;;;;;;12.63;4.97;;;;;;;;;;4954788;29;20043;-74
2021/09/15 00:08:03;;;;;;;17.52;6.32;;;;;;;;;;4954362;29;20497;-73
2021/09/15 00:10:29;;;;;;;10.02;5.32;;;;;;;;;;4954289;28;20035;-74
2021/09/15 00:12:54;;;;;;;6.55;5.20;;;;;;;;;;4955071;28;20454;-74
2021/09/15 00:15:19;;;;;;;6.13;5.30;;;;;;;;;;4954468;28;20066;-73
2021/09/15 00:17:45;;;;;;;9.52;5.40;;;;;;;;;;4955040;28;20039;-74
2021/09/15 00:20:11;;;;;;;19.83;5.45;;;;;;;;;;4953145;28;20031;-74
2021/09/15 00:22:36;;;;;;;7.88;5.20;;;;;;;;;;4953878;28;20493;-74
2021/09/15 00:25:02;;;;;;;6.85;4.90;;;;;;;;;;4953398;28;20047;-73
2021/09/15 00:27:27;;;;;;;7.63;5.28;;;;;;;;;;4954407;28;20031;-73
2021/09/15 00:29:53;;;;;;;6.82;5.18;;;;;;;;;;4956191;28;20515;-74
2021/09/15 00:32:19;;;;;;;8.10;4.70;;;;;;;;;;4956284;28;20047;-74
2021/09/15 00:34:44;;;;;;;8.63;5.13;;;;;;;;;;4958621;28;20126;-74
2021/09/15 00:37:10;;;;;;;6.65;4.78;;;;;;;;;;4958498;28;20064;-74
2021/09/15 00:39:35;;;;;;;8.85;5.13;;;;;;;;;;4956712;28;20050;-74
2021/09/15 00:42:00;;;;;;;8.10;4.88;;;;;;;;;;4958531;28;20122;-74
2021/09/15 00:44:26;;;;;;;8.73;4.95;;;;;;;;;;4957400;28;20135;-74
2021/09/15 00:46:53;;;;;;;9.40;5.53;;;;;;;;;;4956937;29;20126;-73
2021/09/15 00:49:19;;;;;;;8.15;4.90;;;;;;;;;;4956860;28;20123;-74
2021/09/15 00:51:48;;;;;;;12.73;5.10;;;;;;;;;;4958120;28;20049;-74
2021/09/15 00:54:15;;;;;;;8.52;5.60;;;;;;;;;;4958244;28;20125;-74
2021/09/15 00:56:43;;;;;;;6.85;5.57;;;;;;;;;;4957011;29;20043;-74
2021/09/15 00:59:09;;;;;;;6.68;5.20;;;;;;;;;;4958358;28;20032;-74
2021/09/15 01:01:37;;;;;;;6.57;5.53;;;;;;;;;;4957965;28;20035;-74
2021/09/15 01:04:05;;;;;;;9.68;5.13;;;;;;;;;;4958259;28;20036;-74
2021/09/15 01:06:33;;;;;;;7.53;4.57;;;;;;;;;;4956958;28;20067;-74
2021/09/15 01:09:01;;;;;;;11.23;5.10;;;;;;;;;;4957384;28;20034;-74
2021/09/15 01:11:29;;;;;;;7.93;4.78;;;;;;;;;;4957924;28;20041;-74
2021/09/15 01:14:09;;;;;;;11.27;5.93;;;;;;;;;;4956757;28;20034;-74
2021/09/15 01:16:58;;;;;;;14.17;5.70;;;;;;;;;;4958017;29;20182;-74
2021/09/15 01:19:47;;;;;;;8.60;5.55;;;;;;;;;;4938346;28;20046;-74
2021/09/15 01:22:31;;;;;;;9.50;5.15;;;;;;;;;;4957939;28;20138;-74
2021/09/15 01:25:32;;;;;;;11.68;4.93;;;;;;;;;;4945694;28;20054;-74
2021/09/15 01:28:17;;;;;;;10.30;5.95;;;;;;;;;;4957681;29;20053;-74
2021/09/15 01:30:46;;;;;;;12.77;5.07;;;;;;;;;;4956142;28;20032;-74
2021/09/15 01:33:14;;;;;;;9.05;5.10;;;;;;;;;;4956337;29;20402;-74
2021/09/15 01:35:40;;;;;;;12.32;5.10;;;;;;;;;;4956036;29;20090;-74
2021/09/15 01:38:06;;;;;;;11.43;5.47;;;;;;;;;;4940007;29;20517;-74
2021/09/15 01:40:32;;;;;;;5.97;5.35;;;;;;;;;;4955902;28;20062;-74
2021/09/15 01:43:00;;;;;;;10.95;5.15;;;;;;;;;;4956131;29;20069;-74
2021/09/15 01:45:25;;;;;;;14.00;5.15;;;;;;;;;;4956256;29;20059;-74
2021/09/15 01:47:51;;;;;;;6.72;5.28;;;;;;;;;;4956359;29;20034;-74
2021/09/15 01:50:18;;;;;;;11.60;5.65;;;;;;;;;;4955627;28;20409;-74
2021/09/15 01:52:44;;;;;;;11.00;5.25;;;;;;;;;;4955892;28;20031;-74
2021/09/15 01:55:27;;;;;;;8.70;4.72;;;;;;;;;;4956073;28;20043;-74
2021/09/15 01:58:15;;;;;;;6.82;5.05;;;;;;;;;;4957158;28;20098;-74
2021/09/15 02:00:54;;;;;;;14.98;6.53;;;;;;;;;;4955832;28;20028;-74
2021/09/15 02:03:39;;;;;;;8.15;6.65;;;;;;;;;;4956925;28;20050;-74
2021/09/15 02:06:17;;;;;;;14.73;6.00;;;;;;;;;;4955900;29;20429;-74
2021/09/15 02:08:48;;;;;;;8.55;5.90;;;;;;;;;;4955620;28;20035;-74
2021/09/15 02:11:42;;;;;;;6.47;5.32;;;;;;;;;;4933455;29;20046;-74
2021/09/15 02:14:08;;;;;;;10.18;5.45;;;;;;;;;;4950346;28;20027;-74
2021/09/15 02:16:41;;;;;;;13.05;5.22;;;;;;;;;;4940723;29;20039;-76
2021/09/15 02:19:07;;;;;;;8.55;4.85;;;;;;;;;;4955197;28;20042;-75
2021/09/15 02:21:55;;;;;;;7.50;5.07;;;;;;;;;;4937681;28;20042;-75
2021/09/15 02:24:40;;;;;;;7.20;5.00;;;;;;;;;;4955215;29;20390;-75
2021/09/15 02:27:25;;;;;;;11.40;5.03;;;;;;;;;;4955377;29;20032;-75
2021/09/15 02:29:52;;;;;;;8.52;4.93;;;;;;;;;;4954762;28;20126;-75
2021/09/15 02:32:31;;;;;;;6.57;5.00;;;;;;;;;;4956196;28;20399;-75
2021/09/15 02:35:22;;;;;;;8.23;5.38;;;;;;;;;;4940955;28;20051;-75
2021/09/15 02:37:56;;;;;;;5.63;4.97;;;;;;;;;;4954838;28;20031;-75
2021/09/15 02:40:51;;;;;;;8.40;5.47;;;;;;;;;;4920609;28;20220;-75
2021/09/15 02:43:40;;;;;;;11.80;5.80;;;;;;;;;;4955201;29;20541;-75
2021/09/15 02:46:31;;;;;;;9.40;5.30;;;;;;;;;;4955948;28;20053;-75
2021/09/15 02:49:10;;;;;;;8.27;5.20;;;;;;;;;;4955208;28;20046;-76
2021/09/15 02:51:55;;;;;;;8.75;5.13;;;;;;;;;;4955353;28;20493;-76
2021/09/15 02:54:26;;;;;;;9.18;5.05;;;;;;;;;;4955000;29;20035;-75
2021/09/15 02:57:12;;;;;;;9.82;5.97;;;;;;;;;;4954594;29;20062;-76
2021/09/15 02:59:42;;;;;;;9.82;5.60;;;;;;;;;;4954772;28;20039;-75
2021/09/15 03:02:21;;;;;;;16.33;5.63;;;;;;;;;;4954870;29;20035;-75
2021/09/15 03:05:03;;;;;;;7.53;5.40;;;;;;;;;;4954584;29;20446;-75
2021/09/15 03:07:41;;;;;;;7.10;5.85;;;;;;;;;;4954755;28;20038;-75
2021/09/15 03:10:07;;;;;;;8.27;5.97;;;;;;;;;;4954108;28;20374;-76
2021/09/15 03:12:33;;;;;;;12.85;5.70;;;;;;;;;;4954530;29;20389;-75
2021/09/15 03:14:59;;;;;;;14.27;6.32;;;;;;;;;;4954610;29;20159;-75
2021/09/15 03:17:24;;;;;;;15.40;6.22;;;;;;;;;;4954671;29;20511;-76
2021/09/15 03:19:50;;;;;;;10.02;5.70;;;;;;;;;;4954616;28;20035;-76
2021/09/15 03:22:15;;;;;;;8.48;6.75;;;;;;;;;;4954299;29;20492;-76
2021/09/15 03:24:41;;;;;;;9.25;6.80;;;;;;;;;;4954360;29;20209;-76
2021/09/15 03:27:06;;;;;;;9.70;6.35;;;;;;;;;;4954283;29;20034;-76
2021/09/15 03:29:33;;;;;;;8.10;6.05;;;;;;;;;;4955373;28;20062;-76
2021/09/15 03:31:59;;;;;;;17.20;6.78;;;;;;;;;;4954312;29;20139;-75
2021/09/15 03:34:25;;;;;;;8.85;6.20;;;;;;;;;;4954410;29;20148;-76
2021/09/15 03:36:51;;;;;;;11.93;5.80;;;;;;;;;;4954340;29;20068;-77
2021/09/15 03:39:18;;;;;;;10.32;5.85;;;;;;;;;;4954487;28;20052;-75
2021/09/15 03:41:44;;;;;;;10.70;6.55;;;;;;;;;;4953435;29;20035;-77
2021/09/15 03:44:09;;;;;;;15.55;6.10;;;;;;;;;;4955296;28;20036;-76
2021/09/15 03:46:36;;;;;;;13.18;7.55;;;;;;;;;;4954039;28;20039;-77
2021/09/15 03:49:02;;;;;;;10.68;8.02;;;;;;;;;;4955313;28;20042;-77
2021/09/15 03:51:28;;;;;;;17.92;8.20;;;;;;;;;;4938162;29;20520;-76
2021/09/15 03:53:54;;;;;;;18.42;9.30;;;;;;;;;;4954123;29;20059;-76
2021/09/15 03:56:20;;;;;;;15.80;9.30;;;;;;;;;;4953978;29;20110;-76
2021/09/15 03:58:46;;;;;;;12.55;8.10;;;;;;;;;;4954005;28;20031;-74
2021/09/15 04:01:14;;;;;;;20.92;7.93;;;;;;;;;;4954085;29;20027;-75
2021/09/15 04:03:40;;;;;;;14.20;8.52;;;;;;;;;;4953243;28;20039;-76
2021/09/15 04:06:06;;;;;;;9.45;7.88;;;;;;;;;;4953730;28;20031;-77
2021/09/15 04:08:31;;;;;;;11.75;8.88;;;;;;;;;;4954163;28;20030;-75
2021/09/15 04:10:57;;;;;;;17.48;9.30;;;;;;;;;;4953676;28;20085;-75
2021/09/15 04:13:23;;;;;;;16.40;8.82;;;;;;;;;;4953768;29;20481;-75
2021/09/15 04:15:50;;;;;;;9.80;7.90;;;;;;;;;;4963826;28;20182;-77
2021/09/15 04:18:16;;;;;;;10.80;7.97;;;;;;;;;;4974466;28;20114;-74
2021/09/15 04:20:45;;;;;;;9.65;6.45;;;;;;;;;;4974476;28;20489;-79
2021/09/15 04:23:19;;;;;;;12.38;7.57;;;;;;;;;;4967283;28;20042;-78
2021/09/15 04:31:17;;;;;;;9.35;7.35;;;;;;;;;;4972523;28;20034;-76
2021/09/15 04:33:43;;;;;;;8.05;7.22;;;;;;;;;;4971449;28;20082;-76
2021/09/15 04:36:09;;;;;;;8.95;6.90;;;;;;;;;;4973714;28;20050;-76
2021/09/15 04:38:34;;;;;;;11.07;7.78;;;;;;;;;;4967009;28;20074;-75
2021/09/15 04:41:02;;;;;;;9.70;7.18;;;;;;;;;;4953510;28;20309;-76
2021/09/15 04:43:28;;;;;;;9.82;7.07;;;;;;;;;;4953621;29;20442;-76
2021/09/15 04:45:54;;;;;;;16.95;7.13;;;;;;;;;;4937863;29;20042;-76
2021/09/15 04:48:20;;;;;;;10.88;6.75;;;;;;;;;;4953670;29;20102;-76
2021/09/15 04:50:45;;;;;;;17.83;6.22;;;;;;;;;;4953397;28;20469;-76
2021/09/15 04:53:11;;;;;;;12.45;7.53;;;;;;;;;;4953420;28;20043;-76
2021/09/15 04:55:37;;;;;;;12.27;7.40;;;;;;;;;;4953662;29;20039;-76
2021/09/15 04:58:04;;;;;;;12.02;6.70;;;;;;;;;;4954768;28;20031;-76
2021/09/15 05:00:31;;;;;;;13.13;7.43;;;;;;;;;;4953539;28;20032;-76
2021/09/15 05:03:00;;;;;;;11.13;6.85;;;;;;;;;;4953380;29;20031;-76
2021/09/15 05:05:37;;;;;;;15.43;7.80;;;;;;;;;;4953542;29;20043;-76
2021/09/15 05:08:03;;;;;;;10.15;5.97;;;;;;;;;;4952969;28;20141;-76
2021/09/15 05:10:31;;;;;;;11.15;7.95;;;;;;;;;;4953202;28;20031;-76
2021/09/15 05:12:57;;;;;;;16.80;6.65;;;;;;;;;;4953549;28;20039;-76
2021/09/15 05:15:23;;;;;;;10.27;7.40;;;;;;;;;;4954186;28;20035;-76
2021/09/15 05:17:50;;;;;;;10.90;6.70;;;;;;;;;;4957139;29;20378;-76
2021/09/15 05:20:19;;;;;;;10.48;6.35;;;;;;;;;;4956990;28;20063;-76
2021/09/15 05:22:48;;;;;;;10.35;7.18;;;;;;;;;;4956851;29;20039;-76
2021/09/15 05:25:14;;;;;;;15.80;7.18;;;;;;;;;;4957758;28;20122;-76
2021/09/15 05:27:40;;;;;;;8.40;6.93;;;;;;;;;;4956702;29;20117;-76
2021/09/15 05:30:07;;;;;;;10.40;7.40;;;;;;;;;;4956317;28;20485;-76
2021/09/15 05:32:33;;;;;;;15.95;6.88;;;;;;;;;;4956397;29;20559;-76
2021/09/15 05:35:00;;;;;;;8.93;6.43;;;;;;;;;;4956589;29;20058;-76
2021/09/15 05:37:25;;;;;;;11.88;7.18;;;;;;;;;;4956594;29;20512;-76
2021/09/15 05:39:51;;;;;;;11.77;6.13;;;;;;;;;;4957557;28;20031;-76
2021/09/15 05:42:16;;;;;;;9.70;6.80;;;;;;;;;;4940582;29;20091;-76
2021/09/15 05:44:41;;;;;;;10.85;7.53;;;;;;;;;;4957017;28;20056;-76
2021/09/15 05:47:07;;;;;;;7.05;6.35;;;;;;;;;;4956399;29;20037;-76
2021/09/15 05:49:33;;;;;;;6.70;5.80;;;;;;;;;;4956287;28;20062;-76
2021/09/15 05:51:59;;;;;;;7.07;6.13;;;;;;;;;;4956075;29;20070;-75
2021/09/15 05:54:24;;;;;;;9.55;5.88;;;;;;;;;;4955607;28;20035;-76
2021/09/15 05:56:50;;;;;;;11.57;6.20;;;;;;;;;;4956396;29;20435;-76
2021/09/15 05:59:16;;;;;;;7.43;5.90;;;;;;;;;;4939867;29;20058;-76
2021/09/15 06:01:41;;;;;;;10.52;6.28;;;;;;;;;;4956252;28;20058;-76
2021/09/15 06:04:07;;;;;;;10.02;6.18;;;;;;;;;;4956044;29;20039;-76
2021/09/15 06:06:50;;;;;;;8.02;5.55;;;;;;;;;;4957085;28;20424;-76
2021/09/15 06:09:19;;;;;;;11.45;7.13;;;;;;;;;;4955187;28;20062;-75
2021/09/15 06:11:45;;;;;;;8.60;6.18;;;;;;;;;;4955424;29;20066;-76
2021/09/15 06:14:11;;;;;;;11.73;6.47;;;;;;;;;;4955410;29;20130;-76
2021/09/15 06:16:37;;;;;;;7.18;6.25;;;;;;;;;;4955797;28;20114;-76
2021/09/15 06:19:03;;;;;;;10.70;5.68;;;;;;;;;;4954950;28;20501;-75
2021/09/15 06:21:50;;;;;;;9.07;5.55;;;;;;;;;;4955989;29;20429;-76
2021/09/15 06:24:38;;;;;;;6.85;5.90;;;;;;;;;;4951051;28;20567;-76
2021/09/15 06:27:04;;;;;;;10.45;6.30;;;;;;;;;;4953451;28;20138;-76
2021/09/15 06:29:29;;;;;;;13.05;5.38;;;;;;;;;;4956615;28;20043;-77
2021/09/15 06:31:54;;;;;;;8.05;6.13;;;;;;;;;;4956318;28;20070;-75
2021/09/15 06:34:20;;;;;;;13.88;6.70;;;;;;;;;;4956531;28;20043;-75
2021/09/15 06:36:45;;;;;;;10.73;5.85;;;;;;;;;;4955326;29;20047;-76
2021/09/15 06:39:10;;;;;;;9.82;6.40;;;;;;;;;;4954541;28;20057;-75
2021/09/15 06:41:36;;;;;;;10.23;6.20;;;;;;;;;;4955004;29;20039;-76
2021/09/15 06:44:09;;;;;;;9.43;5.40;;;;;;;;;;4956018;28;20064;-78
2021/09/15 06:46:35;;;;;;;7.38;5.55;;;;;;;;;;4960696;29;20051;-79
2021/09/15 06:49:00;;;;;;;10.88;5.55;;;;;;;;;;4939297;28;20089;-76
2021/09/15 06:51:26;;;;;;;10.95;5.97;;;;;;;;;;4955582;28;20039;-75
2021/09/15 06:53:52;;;;;;;13.13;5.85;;;;;;;;;;4956004;28;20035;-75
2021/09/15 06:56:18;;;;;;;7.32;5.82;;;;;;;;;;4954886;28;20058;-76
2021/09/15 06:58:43;;;;;;;17.63;7.18;;;;;;;;;;4955964;28;20404;-75
2021/09/15 07:01:09;;;;;;;12.25;6.53;;;;;;;;;;4955355;28;20074;-75
2021/09/15 07:03:34;;;;;;;7.75;5.68;;;;;;;;;;4955984;28;20126;-75
2021/09/15 07:06:00;;;;;;;7.57;5.43;;;;;;;;;;4954556;29;20023;-75
2021/09/15 07:08:25;;;;;;;10.30;5.95;;;;;;;;;;4955103;28;20086;-75
2021/09/15 07:10:50;;;;;;;11.45;5.97;;;;;;;;;;4955324;28;20035;-75
2021/09/15 07:13:16;;;;;;;10.02;5.63;;;;;;;;;;4955746;29;20035;-75
2021/09/15 07:15:41;;;;;;;14.07;5.93;;;;;;;;;;4955715;29;20074;-75
2021/09/15 07:18:06;;;;;;;12.13;6.93;;;;;;;;;;4954879;28;20042;-75
2021/09/15 07:20:33;;;;;;;12.20;7.28;;;;;;;;;;4955438;28;20035;-77
2021/09/15 07:22:58;;;;;;;8.77;5.95;;;;;;;;;;4955890;28;20039;-75
2021/09/15 07:25:23;;;;;;;12.52;6.38;;;;;;;;;;4955850;28;20393;-76
2021/09/15 07:27:49;;;;;;;11.10;6.43;;;;;;;;;;4954270;29;20070;-75
2021/09/15 07:30:14;;;;;;;8.75;5.55;;;;;;;;;;4954157;28;20035;-75
2021/09/15 07:32:40;;;;;;;10.15;5.15;;;;;;;;;;4955447;29;20043;-75
2021/09/15 07:35:06;;;;;;;8.55;5.78;;;;;;;;;;4955459;28;20035;-75
2021/09/15 07:37:31;;;;;;;9.05;5.80;;;;;;;;;;4955487;28;20039;-75
2021/09/15 07:39:57;;;;;;;10.20;5.60;;;;;;;;;;4954803;28;20205;-75
2021/09/15 07:42:23;;;;;;;6.72;5.30;;;;;;;;;;4936281;29;20039;-75
2021/09/15 07:44:49;;;;;;;11.57;4.90;;;;;;;;;;4936153;29;20481;-75
2021/09/15 07:47:18;;;;;;;8.43;4.82;;;;;;;;;;4936180;29;20035;-75
2021/09/15 07:49:45;;;;;;;10.65;4.80;;;;;;;;;;4935856;29;20046;-75
2021/09/15 07:52:10;;;;;;;7.35;4.93;;;;;;;;;;4936081;29;20042;-75
2021/09/15 07:54:36;;;;;;;6.90;5.05;;;;;;;;;;4934952;29;20035;-75
2021/09/15 07:57:02;;;;;;;6.13;4.53;;;;;;;;;;4936104;29;20091;-75
2021/09/15 07:59:27;;;;;;;7.90;4.80;;;;;;;;;;4935381;29;20036;-75
2021/09/15 08:01:52;;;;;;;5.45;4.50;;;;;;;;;;4935731;29;20600;-75
2021/09/15 08:04:18;;;;;;;6.38;5.10;;;;;;;;;;4935770;29;20035;-75
2021/09/15 08:06:43;;;;;;;7.20;4.72;;;;;;;;;;4934809;29;20446;-75
2021/09/15 08:09:09;;;;;;;8.27;5.13;;;;;;;;;;4934315;29;20050;-75
2021/09/15 08:11:34;;;;;;;9.20;5.13;;;;;;;;;;4951404;28;20047;-75
2021/09/15 08:13:59;;;;;;;10.02;4.53;;;;;;;;;;4954831;28;20035;-75
2021/09/15 08:16:25;;;;;;;5.57;4.53;;;;;;;;;;4955078;29;20473;-75
2021/09/15 08:18:50;;;;;;;11.60;5.30;;;;;;;;;;4955471;28;20042;-79
2021/09/15 08:21:16;;;;;;;5.95;4.68;;;;;;;;;;4954599;29;20500;-78
2021/09/15 08:23:41;;;;;;;8.57;4.10;;;;;;;;;;4956844;29;20054;-77
2021/09/15 08:26:07;;;;;;;11.10;4.88;;;;;;;;;;4956749;28;20122;-78
2021/09/15 08:28:36;;;;;;;9.20;4.95;;;;;;;;;;4954852;29;20082;-78
2021/09/15 08:31:04;;;;;;;10.45;4.60;;;;;;;;;;4955577;28;20043;-78
2021/09/15 08:33:30;;;;;;;8.57;4.68;;;;;;;;;;4954995;28;20485;-80
2021/09/15 08:35:55;;;;;;;15.18;4.63;;;;;;;;;;4954739;29;20035;-75
2021/09/15 08:38:21;;;;;;;10.35;5.80;;;;;;;;;;4954662;29;20042;-75
2021/09/15 08:40:46;;;;;;;8.45;5.35;;;;;;;;;;4936851;29;20035;-75
2021/09/15 08:43:12;;;;;;;7.65;4.53;;;;;;;;;;4954765;28;20038;-75
2021/09/15 08:45:38;;;;;;;6.93;3.88;;;;;;;;;;4954950;28;20051;-75
2021/09/15 08:48:04;;;;;;;8.80;4.30;;;;;;;;;;4954211;28;20032;-74
2021/09/15 08:50:31;;;;;;;10.82;4.45;;;;;;;;;;4954539;28;20074;-75
2021/09/15 08:52:56;;;;;;;9.63;4.55;;;;;;;;;;4957271;29;20074;-74
2021/09/15 08:55:23;;;;;;;5.45;3.88;;;;;;;;;;4958324;28;20473;-75
2021/09/15 08:57:49;;;;;;;10.00;4.32;;;;;;;;;;4958562;28;20179;-75
2021/09/15 09:00:15;;;;;;;11.55;4.45;;;;;;;;;;4958278;28;20027;-76
2021/09/15 09:02:45;;;;;;;7.43;4.25;;;;;;;;;;4957838;28;20042;-75
2021/09/15 09:05:11;;;;;;;10.98;4.13;;;;;;;;;;4958239;28;20035;-76
2021/09/15 09:07:37;;;;;;;8.90;4.32;;;;;;;;;;4958095;28;20035;-76
2021/09/15 09:10:11;;;;;;;8.50;3.83;;;;;;;;;;4957941;28;20481;-76
2021/09/15 09:12:40;;;;;;;7.60;3.72;;;;;;;;;;4957540;28;20031;-75
2021/09/15 09:15:22;;;;;;;9.18;4.40;;;;;;;;;;4956669;29;20061;-76
2021/09/15 09:17:50;;;;;;;7.75;4.30;;;;;;;;;;4956974;28;20027;-75
2021/09/15 09:20:30;;;;;;;9.95;5.05;;;;;;;;;;4956654;28;20493;-75
2021/09/15 09:23:05;;;;;;;11.75;5.07;;;;;;;;;;4956809;29;20050;-75
2021/09/15 09:25:33;;;;;;;9.20;4.28;;;;;;;;;;4956603;29;20146;-76
2021/09/15 09:27:59;;;;;;;10.18;4.63;;;;;;;;;;4957602;28;20043;-75
2021/09/15 09:30:32;;;;;;;6.97;4.03;;;;;;;;;;4956926;28;20098;-74
2021/09/15 09:32:58;;;;;;;6.13;4.18;;;;;;;;;;4957166;28;20494;-75
2021/09/15 09:35:23;;;;;;;14.50;4.70;;;;;;;;;;4957677;28;20054;-75
2021/09/15 09:37:49;;;;;;;4.90;3.70;;;;;;;;;;4957644;29;20035;-75
2021/09/15 09:40:21;;;;;;;5.95;4.47;;;;;;;;;;4957430;28;20046;-74
2021/09/15 09:42:46;;;;;;;4.47;3.80;;;;;;;;;;4956426;29;20090;-74
2021/09/15 09:45:16;;;;;;;6.07;4.32;;;;;;;;;;4954953;29;20039;-75
2021/09/15 09:47:44;;;;;;;9.45;5.00;;;;;;;;;;4956658;28;20043;-75
2021/09/15 09:50:13;;;;;;;8.30;4.70;;;;;;;;;;4956873;28;20507;-75
2021/09/15 09:52:50;;;;;;;7.63;4.55;;;;;;;;;;4956175;29;20039;-75
2021/09/15 09:55:18;;;;;;;8.70;4.30;;;;;;;;;;4957415;28;20118;-75
2021/09/15 09:57:43;;;;;;;8.77;4.13;;;;;;;;;;4957212;28;20396;-75
2021/09/15 10:00:10;;;;;;;10.07;5.03;;;;;;;;;;4957141;28;20031;-75
2021/09/15 10:02:37;;;;;;;8.80;4.40;;;;;;;;;;4954656;28;20094;-75
2021/09/15 10:05:03;;;;;;;11.18;4.82;;;;;;;;;;4956923;28;20043;-75
2021/09/15 10:07:29;;;;;;;6.82;4.50;;;;;;;;;;4956356;28;20039;-74
2021/09/15 10:09:54;;;;;;;6.65;4.40;;;;;;;;;;4956363;28;20085;-75
2021/09/15 10:12:20;;;;;;;7.10;4.63;;;;;;;;;;4955818;29;20378;-75
2021/09/15 10:14:46;;;;;;;9.55;4.68;;;;;;;;;;4955696;29;20035;-74
2021/09/15 10:17:15;;;;;;;7.60;4.60;;;;;;;;;;4956907;28;20401;-75
2021/09/15 10:19:46;;;;;;;9.50;4.65;;;;;;;;;;4955488;28;20098;-75
2021/09/15 10:22:12;;;;;;;6.18;4.50;;;;;;;;;;4939635;29;20031;-74
2021/09/15 10:24:57;;;;;;;6.85;4.53;;;;;;;;;;4955653;29;20038;-75
2021/09/15 10:27:24;;;;;;;;;;;;;;;;;;4957170;28;20134;-74
2021/09/15 10:30:09;;;;;;;10.82;5.50;;;;;;;;;;4956590;28;19920;-74
2021/09/15 10:32:37;;;;;;;9.88;5.07;;;;;;;;;;4956425;28;20390;-74
2021/09/15 10:35:05;;;;;;;8.00;4.57;;;;;;;;;;4955474;29;20069;-74
2021/09/15 10:37:30;;;;;;;8.98;4.85;;;;;;;;;;4956429;28;20512;-75
2021/09/15 10:40:08;;;;;;;11.75;5.93;;;;;;;;;;4955709;28;20074;-75
2021/09/15 10:42:33;;;;;;;10.93;4.47;;;;;;;;;;4955365;29;20049;-74
2021/09/15 10:45:13;;;;;;;8.18;4.28;;;;;;;;;;4956381;28;20034;-75
2021/09/15 10:47:40;;;;;;;8.63;4.65;;;;;;;;;;4956658;28;20039;-75
2021/09/15 10:50:07;;;;;;;10.15;5.40;;;;;;;;;;4956004;28;20057;-75
2021/09/15 10:52:41;;;;;;;8.02;4.68;;;;;;;;;;4956323;28;20034;-74
2021/09/15 10:55:17;;;;;;;10.43;4.20;;;;;;;;;;4956065;28;20433;-75
2021/09/15 10:57:46;;;;;;;6.07;3.20;;;;;;;;;;4955083;29;20047;-74
2021/09/15 11:00:17;;;;;;;5.93;4.05;;;;;;;;;;4956108;28;20513;-75
2021/09/15 11:02:48;;;;;;;5.30;3.47;;;;;;;;;;4956113;29;20047;-75
2021/09/15 11:05:29;;;;;;;7.88;4.00;;;;;;;;;;4956210;28;20046;-74
2021/09/15 11:07:54;;;;;;;5.40;3.70;;;;;;;;;;4955775;28;20559;-75
2021/09/15 11:10:32;;;;;;;6.38;3.53;;;;;;;;;;4955713;28;20043;-75
2021/09/15 11:13:27;;;;;;;6.75;3.70;;;;;;;;;;4955534;28;20047;-74
2021/09/15 11:15:54;;;;;;;6.38;3.60;;;;;;;;;;4955606;28;20091;-76
2021/09/15 11:18:22;;;;;;;7.68;3.78;;;;;;;;;;4955966;28;20035;-76
2021/09/15 11:21:02;;;;;;;7.80;3.40;;;;;;;;;;4938621;29;20031;-76
2021/09/15 11:23:29;;;;;;;6.60;3.90;;;;;;;;;;4954442;29;20031;-76
2021/09/15 11:25:56;;;;;;;8.40;4.43;;;;;;;;;;4954736;28;20408;-76
2021/09/15 11:28:23;;;;;;;5.95;3.83;;;;;;;;;;4955703;28;20055;-76
2021/09/15 11:30:52;;;;;;;4.60;3.13;;;;;;;;;;4954288;28;20035;-76
2021/09/15 11:33:38;;;;;;;5.90;3.38;;;;;;;;;;4954311;28;20051;-76
2021/09/15 11:36:06;;;;;;;5.13;3.30;;;;;;;;;;4955050;28;20130;-76
2021/09/15 11:38:40;;;;;;;5.28;3.40;;;;;;;;;;4955733;28;20051;-76
2021/09/15 11:41:16;;;;;;;6.55;2.92;;;;;;;;;;4953797;28;20035;-76
2021/09/15 11:43:45;;;;;;;7.00;3.45;;;;;;;;;;4954338;28;20055;-76
2021/09/15 11:46:11;;;;;;;4.85;2.78;;;;;;;;;;4955442;28;20043;-76
2021/09/15 11:48:38;;;;;;;8.32;3.55;;;;;;;;;;4955334;28;20126;-76
2021/09/15 11:51:20;;;;;;;4.45;2.90;;;;;;;;;;4955341;28;20027;-76
2021/09/15 11:53:50;;;;;;;4.50;3.10;;;;;;;;;;4953792;28;20155;-76
2021/09/15 11:56:20;;;;;;;3.63;2.72;;;;;;;;;;4955250;28;20082;-76
2021/09/15 11:58:49;;;;;;;10.23;3.33;;;;;;;;;;4955294;28;20114;-76
2021/09/15 12:01:16;;;;;;;4.10;3.33;;;;;;;;;;4954037;28;20036;-76
2021/09/15 12:03:42;;;;;;;9.88;3.40;;;;;;;;;;4955110;28;20043;-76
2021/09/15 12:06:08;;;;;;;5.30;3.10;;;;;;;;;;4955268;28;20409;-76
2021/09/15 12:08:34;;;;;;;9.23;3.33;;;;;;;;;;4955205;28;20043;-77
2021/09/15 12:11:00;;;;;;;4.50;2.70;;;;;;;;;;4954386;28;20042;-76
2021/09/15 12:13:30;;;;;;;7.47;3.25;;;;;;;;;;4955009;28;20055;-76
2021/09/15 12:15:55;;;;;;;4.45;2.90;;;;;;;;;;4955097;28;20046;-76
2021/09/15 12:18:21;;;;;;;3.53;2.80;;;;;;;;;;4955041;28;20039;-76
2021/09/15 12:20:49;;;;;;;4.82;2.83;;;;;;;;;;4954894;28;20043;-76
2021/09/15 12:23:31;;;;;;;5.45;2.55;;;;;;;;;;4955197;28;20515;-76
2021/09/15 12:25:59;;;;;;;7.57;3.10;;;;;;;;;;4956648;28;20035;-76
2021/09/15 12:28:27;;;;;;;6.75;2.95;;;;;;;;;;4959212;28;20495;-76
2021/09/15 12:30:53;;;;;;;10.57;3.35;;;;;;;;;;4958686;28;20073;-76
2021/09/15 12:33:38;;;;;;;4.55;2.60;;;;;;;;;;4957472;29;20079;-76
2021/09/15 12:36:17;;;;;;;4.82;2.33;;;;;;;;;;4958711;29;20485;-76
2021/09/15 12:38:57;;;;;;;6.53;2.42;;;;;;;;;;4958229;28;20809;-76
2021/09/15 12:41:25;;;;;;;4.50;2.40;;;;;;;;;;4958746;28;20122;-76
2021/09/15 12:44:01;;;;;;;6.20;2.45;;;;;;;;;;4958691;28;20039;-76
2021/09/15 12:46:29;;;;;;;6.30;2.50;;;;;;;;;;4958685;28;20043;-76
2021/09/15 12:48:56;;;;;;;8.63;2.92;;;;;;;;;;4958251;28;20039;-76
2021/09/15 12:51:23;;;;;;;3.63;2.15;;;;;;;;;;4958747;28;20505;-76
2021/09/15 12:53:50;;;;;;;4.88;2.38;;;;;;;;;;4958541;28;20035;-76
2021/09/15 12:56:17;;;;;;;3.45;2.20;;;;;;;;;;4958561;28;20051;-76
2021/09/15 12:58:42;;;;;;;3.28;2.15;;;;;;;;;;4957225;29;20035;-76
2021/09/15 13:01:18;;;;;;;4.75;2.20;;;;;;;;;;4958401;28;20035;-76
2021/09/15 13:03:44;;;;;;;5.35;2.50;;;;;;;;;;4958372;28;20031;-76
2021/09/15 13:06:15;;;;;;;7.63;2.67;;;;;;;;;;4958079;28;20466;-76
2021/09/15 13:08:51;;;;;;;5.95;2.55;;;;;;;;;;4958193;28;20528;-76
2021/09/15 13:11:17;;;;;;;4.03;2.10;;;;;;;;;;4958196;28;20118;-76
2021/09/15 13:13:43;;;;;;;3.05;2.05;;;;;;;;;;4957044;29;20521;-76
2021/09/15 13:16:09;;;;;;;4.28;2.15;;;;;;;;;;4956918;29;20481;-76
2021/09/15 13:18:35;;;;;;;9.35;2.38;;;;;;;;;;4958241;28;20032;-76
2021/09/15 13:21:01;;;;;;;4.15;2.38;;;;;;;;;;4957297;28;20031;-75
2021/09/15 13:23:26;;;;;;;3.05;2.08;;;;;;;;;;4957705;28;20035;-76
2021/09/15 13:25:52;;;;;;;3.92;2.10;;;;;;;;;;4958031;28;20031;-76
2021/09/15 13:28:17;;;;;;;6.03;2.20;;;;;;;;;;4957881;28;20489;-75
2021/09/15 13:30:43;;;;;;;4.55;2.45;;;;;;;;;;4957715;28;20098;-76
2021/09/15 13:33:09;;;;;;;3.80;2.28;;;;;;;;;;4957294;28;20039;-76
2021/09/15 13:35:34;;;;;;;4.57;2.30;;;;;;;;;;4957559;28;20032;-76
2021/09/15 13:38:00;;;;;;;6.25;2.45;;;;;;;;;;4956159;28;20481;-76
2021/09/15 13:40:26;;;;;;;6.63;2.10;;;;;;;;;;4957674;28;20121;-76
2021/09/15 13:42:52;;;;;;;7.05;2.17;;;;;;;;;;4957564;28;20035;-75
2021/09/15 13:45:18;;;;;;;4.97;2.10;;;;;;;;;;4957462;28;20087;-76
2021/09/15 13:47:44;;;;;;;5.90;2.30;;;;;;;;;;4957642;28;20039;-75
2021/09/15 13:50:12;;;;;;;6.45;2.20;;;;;;;;;;4957141;28;20121;-75
2021/09/15 13:52:37;;;;;;;5.10;2.05;;;;;;;;;;4957372;28;20042;-76
2021/09/15 13:55:03;;;;;;;4.15;2.05;;;;;;;;;;4956298;28;20420;-76
2021/09/15 13:57:28;;;;;;;3.17;2.03;;;;;;;;;;4957489;28;20062;-76
2021/09/15 13:59:55;;;;;;;4.88;2.17;;;;;;;;;;4956051;28;20469;-75
2021/09/15 14:02:20;;;;;;;4.32;2.20;;;;;;;;;;4957339;28;20042;-75
2021/09/15 14:04:45;;;;;;;4.93;2.10;;;;;;;;;;4956914;29;20039;-75
2021/09/15 14:07:11;;;;;;;4.00;2.47;;;;;;;;;;4956117;28;20081;-76
2021/09/15 14:09:36;;;;;;;4.60;2.20;;;;;;;;;;4957009;28;20047;-75
2021/09/15 14:12:02;;;;;;;6.90;2.40;;;;;;;;;;4955996;29;20474;-75
2021/09/15 14:14:27;;;;;;;5.95;2.20;;;;;;;;;;4956403;28;20477;-75
2021/09/15 14:16:52;;;;;;;5.47;2.10;;;;;;;;;;4955811;29;20042;-75
2021/09/15 14:19:18;;;;;;;11.27;2.05;;;;;;;;;;4956807;28;20054;-76
2021/09/15 14:21:43;;;;;;;6.18;1.80;;;;;;;;;;4956982;29;20488;-75
2021/09/15 14:24:09;;;;;;;8.68;2.08;;;;;;;;;;4956932;28;20045;-75
2021/09/15 14:26:35;;;;;;;2.38;1.70;;;;;;;;;;4956966;28;20031;-75
2021/09/15 14:29:01;;;;;;;5.82;2.05;;;;;;;;;;4955280;28;20466;-75
2021/09/15 14:31:26;;;;;;;4.35;2.20;;;;;;;;;;4956720;28;20067;-76
2021/09/15 14:33:51;;;;;;;5.38;2.05;;;;;;;;;;4956625;28;20031;-76
2021/09/15 14:36:21;;;;;;;7.78;1.90;;;;;;;;;;4956558;28;20556;-76
2021/09/15 14:38:46;;;;;;;7.03;2.10;;;;;;;;;;4956000;28;20042;-76
2021/09/15 14:41:13;;;;;;;7.03;2.15;;;;;;;;;;4956274;28;20039;-76
2021/09/15 14:43:39;;;;;;;4.38;2.25;;;;;;;;;;4955220;28;20473;-76
2021/09/15 14:46:05;;;;;;;5.63;2.03;;;;;;;;;;4956465;28;20070;-75
2021/09/15 14:48:32;;;;;;;4.75;2.28;;;;;;;;;;4955652;28;20071;-76
2021/09/15 14:50:58;;;;;;;3.65;2.30;;;;;;;;;;4956308;28;20040;-77
2021/09/15 14:53:23;;;;;;;6.32;2.33;;;;;;;;;;4956321;28;20043;-76